Shell Bell — WDJ3450 — position and weather

sailwx.info

Track history (hours):
 
Tides and Currents Weather Stations Pressure Air Temp Water Temp Dewpoint Dewpoint Depression Visibility Wind Speed Wind Dir Waves Ship Positions

Shell Bell

Owner: Venardi Mr, Mark L, Pleasant Hill, CA. More information available from US FCC via Universal Licensing System and Coast Guard Vessel Documentation Center.

Last reported at 2017-Oct-17 17:45 UTC. Time now 2017-Oct-18 01:49 UTC.
Position N 37°46' W 122°17'.

Length 12 m.

Type: Sailing vessel. MMSI: 367768090.

Date/timePositionNaut miles runAvg speedWind from/ knotsBaromVisibWave heightAir tempDewpointWater temp
2017-Oct-17 17:45N 37°46' W 122°17'0 0.0
2017-Oct-17 17:26N 37°46' W 122°17'0 0.0
2017-Oct-17 16:59N 37°46' W 122°17'0 0.6
2017-Oct-17 16:30N 37°46' W 122°17'3 6.0
2017-Oct-17 16:00N 37°46' W 122°21'4 8.0
2017-Oct-17 15:30N 37°49' W 122°24'4 8.0
2017-Oct-17 15:00N 37°48' W 122°29'4 8.1
2017-Oct-17 14:30N 37°47' W 122°34'4 7.4
2017-Oct-17 14:00N 37°46' W 122°39'3 5.6
2017-Oct-17 13:30N 37°45' W 122°42'2 4.6
2017-Oct-17 13:01N 37°45' W 122°45'2 4.3
2017-Oct-17 12:30N 37°46' W 122°48'2 3.9
2017-Oct-17 11:59N 37°46' W 122°50'2 3.6
2017-Oct-17 11:26N 37°46' W 122°53'2 3.8
2017-Oct-17 10:59N 37°47' W 122°55'2 3.9
2017-Oct-17 10:30N 37°48' W 122°57'2 3.8
2017-Oct-17 10:00N 37°49' W 122°59'2 3.9
2017-Oct-17 09:30N 37°50' W 123°01'2 4.2
2017-Oct-17 09:00N 37°51' W 123°03'2 4.2
2017-Oct-17 08:30N 37°52' W 123°05'2 4.1
2017-Oct-17 08:00N 37°53' W 123°08'2 4.6
2017-Oct-17 07:30N 37°54' W 123°10'3 6.9
2017-Oct-17 07:00N 37°56' W 123°14'4 7.0
2017-Oct-17 06:30N 37°58' W 123°18'3 6.9
2017-Oct-17 06:00N 37°59' W 123°22'2 3.5
2017-Oct-17 05:30N 38°00' W 123°23'2 3.6
2017-Oct-17 05:00N 38°02' W 123°25'2 3.5
2017-Oct-17 04:30N 38°03' W 123°27'2 3.3
2017-Oct-17 04:00N 38°03' W 123°29'2 3.3
2017-Oct-17 03:30N 38°04' W 123°31'2 4.1
2017-Oct-17 03:00N 38°05' W 123°33'2 4.4
2017-Oct-17 02:30N 38°06' W 123°36'2 4.3
2017-Oct-17 02:00N 38°07' W 123°38'2 4.1
2017-Oct-17 01:30N 38°08' W 123°40'2 4.3
2017-Oct-17 01:00N 38°09' W 123°43'2 3.8
2017-Oct-17 00:26N 38°10' W 123°45'2 3.6
2017-Oct-17 00:00N 38°11' W 123°47'2 3.1
2017-Oct-16 23:30N 38°12' W 123°48'2 4.0
2017-Oct-16 23:00N 38°13' W 123°50'2 3.8
2017-Oct-16 22:30N 38°15' W 123°52'2 3.0
2017-Oct-16 21:59N 38°16' W 123°53'1 2.7
2017-Oct-16 21:30N 38°17' W 123°55'2 2.7
2017-Oct-16 20:48N 38°18' W 123°57'1 3.3
2017-Oct-16 20:25N 38°18' W 123°58'2 3.1
2017-Oct-16 19:53N 38°19' W 123°60'1 2.9
2017-Oct-16 19:30N 38°20' W 124°01'3 5.7
2017-Oct-16 18:59N 38°19' W 123°57'3 5.7
2017-Oct-16 18:30N 38°19' W 123°54'3 5.8
2017-Oct-16 18:00N 38°18' W 123°50'3 6.1
2017-Oct-16 17:30N 38°18' W 123°46'3 5.8
2017-Oct-16 16:59N 38°18' W 123°42'2 3.9
2017-Oct-16 16:30N 38°16' W 123°44'3 5.5
2017-Oct-16 16:00N 38°15' W 123°47'3 5.1
2017-Oct-16 15:27N 38°13' W 123°50'5 5.4
2017-Oct-16 14:31N 38°10' W 123°55'3 5.1
2017-Oct-16 13:59N 38°09' W 123°58'3 4.5
2017-Oct-16 13:26N 38°07' W 123°60'5 4.5
2017-Oct-16 12:18N 38°02' W 124°03'1 4.3
2017-Oct-16 11:58N 38°01' W 124°04'2 4.5
2017-Oct-16 11:27N 37°59' W 124°05'2 4.3
2017-Oct-16 11:00N 37°57' W 124°06'2 4.3
2017-Oct-16 10:30N 37°55' W 124°08'2 4.1
2017-Oct-16 09:59N 37°53' W 124°09'2 4.2
2017-Oct-16 09:30N 37°52' W 124°10'93 2.0
2017-Oct-14 11:38N 37°01' W 122°32'5 4.8
2017-Oct-14 10:39N 37°03' W 122°37'1 4.7
2017-Oct-14 10:31N 37°04' W 122°38'63 4.7
2017-Oct-13 21:09N 37°47' W 123°36'3 7.4
2017-Oct-13 20:48N 37°50' W 123°35'2 7.1
2017-Oct-13 20:29N 37°52' W 123°34'4 7.5
2017-Oct-13 20:00N 37°55' W 123°33'4 7.1
2017-Oct-13 19:30N 37°58' W 123°31'3 5.7
2017-Oct-13 18:59N 37°59' W 123°27'3 5.5
2017-Oct-13 18:29N 37°59' W 123°24'3 5.9
2017-Oct-13 17:57N 37°59' W 123°20'3 6.5
2017-Oct-13 17:28N 37°59' W 123°16'3 4.4
2017-Oct-13 16:53N 37°59' W 123°13'3 6.8
2017-Oct-13 16:30N 37°59' W 123°09'3 6.2
2017-Oct-13 16:00N 37°59' W 123°05'3 5.2
2017-Oct-13 15:30N 37°58' W 123°02'3 5.7
2017-Oct-13 15:00N 37°58' W 122°58'3 6.0
2017-Oct-13 14:30N 38°00' W 122°55'1 0.1
2017-Oct-13 01:33N 38°01' W 122°54'0 5.1
2017-Oct-13 01:29N 38°01' W 122°54'3 5.6
2017-Oct-13 00:53N 37°58' W 122°51'3 6.9
2017-Oct-13 00:30N 37°55' W 122°50'12 5.7
2017-Oct-12 22:17N 37°47' W 122°39'2 6.6
2017-Oct-12 21:57N 37°47' W 122°36'3 7.4
2017-Oct-12 21:30N 37°48' W 122°32'3 6.8
2017-Oct-12 21:00N 37°50' W 122°28'3 6.2
2017-Oct-12 20:30N 37°49' W 122°24'3 6.8
2017-Oct-12 20:00N 37°48' W 122°20'1 2.8
2017-Oct-12 19:30N 37°48' W 122°19'1 2.9
2017-Oct-12 19:00N 37°46' W 122°20'2 3.9
2017-Oct-12 18:30N 37°46' W 122°17'0 0.2
2017-Oct-12 17:59N 37°46' W 122°17'0 0.0
2017-Oct-12 17:29N 37°46' W 122°17'0 0.0
2017-Oct-12 16:59N 37°46' W 122°17'0 0.0
2017-Oct-12 16:29N 37°46' W 122°17'0 0.0
2017-Oct-12 15:59N 37°46' W 122°17'0 0.0
2017-Oct-12 15:29N 37°46' W 122°17'0 0.0
2017-Oct-12 14:59N 37°46' W 122°17'0 0.0
2017-Oct-12 14:29N 37°46' W 122°17'0 0.0
2017-Oct-12 13:59N 37°46' W 122°17'0 0.0
2017-Oct-12 13:29N 37°46' W 122°17'0 0.0
2017-Oct-12 12:59N 37°46' W 122°17'0 0.0
2017-Oct-12 12:29N 37°46' W 122°17'0 0.0
2017-Oct-12 11:59N 37°46' W 122°17'0 0.0
2017-Oct-12 11:29N 37°46' W 122°17'0 0.0
2017-Oct-12 10:59N 37°46' W 122°17'0 0.0
2017-Oct-12 10:29N 37°46' W 122°17'0 0.0
2017-Oct-12 09:59N 37°46' W 122°17'0 0.0
2017-Oct-12 09:29N 37°46' W 122°17'0 0.0
2017-Oct-12 08:59N 37°46' W 122°17'0 0.0
2017-Oct-12 08:29N 37°46' W 122°17'0 0.0
2017-Oct-12 07:59N 37°46' W 122°17'0 0.0
2017-Oct-12 07:29N 37°46' W 122°17'0 0.0
2017-Oct-12 06:59N 37°46' W 122°17'0 0.0
2017-Oct-12 06:29N 37°46' W 122°17'0 0.0
2017-Oct-12 05:59N 37°46' W 122°17'0 0.0
2017-Oct-12 05:29N 37°46' W 122°17'0 0.0
2017-Oct-12 04:59N 37°46' W 122°17'0 0.0
2017-Oct-12 04:29N 37°46' W 122°17'0 0.0
2017-Oct-12 03:59N 37°46' W 122°17'0 0.0
2017-Oct-12 03:29N 37°46' W 122°17'0 0.0
2017-Oct-12 02:59N 37°46' W 122°17'0 0.0
2017-Oct-12 02:29N 37°46' W 122°17'0 0.0
2017-Oct-12 01:59N 37°46' W 122°17'0 0.0
2017-Oct-12 01:29N 37°46' W 122°17'0 0.0
2017-Oct-12 00:59N 37°46' W 122°17'0 0.0
2017-Oct-12 00:29N 37°46' W 122°17'0 0.0
2017-Oct-11 23:59N 37°46' W 122°17'0 0.0
2017-Oct-11 23:29N 37°46' W 122°17'0 0.0
2017-Oct-11 22:59N 37°46' W 122°17'0 0.0
2017-Oct-11 22:29N 37°46' W 122°17'0 0.0
2017-Oct-11 21:59N 37°46' W 122°17'0 0.0
2017-Oct-11 21:29N 37°46' W 122°17'0 0.0
2017-Oct-11 20:59N 37°46' W 122°17'0 0.0
2017-Oct-11 20:29N 37°46' W 122°17'0 0.0
2017-Oct-11 19:59N 37°46' W 122°17'0 0.0
2017-Oct-11 19:29N 37°46' W 122°17'0 0.0
2017-Oct-11 18:59N 37°46' W 122°17'0 0.0
2017-Oct-11 18:29N 37°46' W 122°17'0 0.0
2017-Oct-11 17:59N 37°46' W 122°17'0 0.0
2017-Oct-11 17:29N 37°46' W 122°17'0 0.0
2017-Oct-11 16:59N 37°46' W 122°17'0 0.0
2017-Oct-11 00:00N 37°46' W 122°17'0 0.0
2017-Oct-10 23:30N 37°46' W 122°17'0 0.0
2017-Oct-10 23:00N 37°46' W 122°17'0 0.0
2017-Oct-10 22:30N 37°46' W 122°17'0 0.0
2017-Oct-10 22:00N 37°46' W 122°17'0 0.0
2017-Oct-10 21:30N 37°46' W 122°17'0 0.0
2017-Oct-10 21:00N 37°46' W 122°17'0 0.0
2017-Oct-10 20:30N 37°46' W 122°17'0 0.0
2017-Oct-10 20:00N 37°46' W 122°17'0 0.0
2017-Oct-10 19:30N 37°46' W 122°17'0 0.0
2017-Oct-09 00:05N 37°46' W 122°17'0 0.0
2017-Oct-09 00:01N 37°46' W 122°17'2 3.6
2017-Oct-08 23:30N 37°46' W 122°20'3 5.6
2017-Oct-08 23:00N 37°48' W 122°23'2 3.6
2017-Oct-08 22:31N 37°49' W 122°24'0 1.0
2017-Oct-08 22:00N 37°49' W 122°24'2 3.6
2017-Oct-08 21:31N 37°50' W 122°26'1 2.1
2017-Oct-08 21:01N 37°51' W 122°26'1 1.2
2017-Oct-08 20:30N 37°50' W 122°26'1 2.9
2017-Oct-08 20:00N 37°51' W 122°27'2 4.6
2017-Oct-08 19:30N 37°52' W 122°24'3 6.9
2017-Oct-08 19:00N 37°49' W 122°24'2 4.3
2017-Oct-08 18:30N 37°47' W 122°23'2 4.5
2017-Oct-08 18:00N 37°46' W 122°20'3 5.6
2017-Oct-08 17:30N 37°46' W 122°17'0 0.6
2017-Oct-08 16:59N 37°46' W 122°17'  
Track history (hours):
 
Tides and Currents Weather Stations Pressure Air Temp Water Temp Dewpoint Dewpoint Depression Visibility Wind Speed Wind Dir Waves Ship Positions

Shell Bell

Owner: Venardi Mr, Mark L, Pleasant Hill, CA. More information available from US FCC via Universal Licensing System and Coast Guard Vessel Documentation Center.

Last reported at 2017-Oct-17 17:45 UTC. Time now 2017-Oct-18 01:49 UTC.
Position N 37°46' W 122°17'.

Length 12 m.

Type: Sailing vessel. MMSI: 367768090.

Date/timePositionNaut miles runAvg speedWind from/ knotsBaromVisibWave heightAir tempDewpointWater temp
2017-Oct-17 17:45N 37°46' W 122°17'0 0.0
2017-Oct-17 17:26N 37°46' W 122°17'0 0.0
2017-Oct-17 16:59N 37°46' W 122°17'0 0.6
2017-Oct-17 16:30N 37°46' W 122°17'3 6.0
2017-Oct-17 16:00N 37°46' W 122°21'4 8.0
2017-Oct-17 15:30N 37°49' W 122°24'4 8.0
2017-Oct-17 15:00N 37°48' W 122°29'4 8.1
2017-Oct-17 14:30N 37°47' W 122°34'4 7.4
2017-Oct-17 14:00N 37°46' W 122°39'3 5.6
2017-Oct-17 13:30N 37°45' W 122°42'2 4.6
2017-Oct-17 13:01N 37°45' W 122°45'2 4.3
2017-Oct-17 12:30N 37°46' W 122°48'2 3.9
2017-Oct-17 11:59N 37°46' W 122°50'2 3.6
2017-Oct-17 11:26N 37°46' W 122°53'2 3.8
2017-Oct-17 10:59N 37°47' W 122°55'2 3.9
2017-Oct-17 10:30N 37°48' W 122°57'2 3.8
2017-Oct-17 10:00N 37°49' W 122°59'2 3.9
2017-Oct-17 09:30N 37°50' W 123°01'2 4.2
2017-Oct-17 09:00N 37°51' W 123°03'2 4.2
2017-Oct-17 08:30N 37°52' W 123°05'2 4.1
2017-Oct-17 08:00N 37°53' W 123°08'2 4.6
2017-Oct-17 07:30N 37°54' W 123°10'3 6.9
2017-Oct-17 07:00N 37°56' W 123°14'4 7.0
2017-Oct-17 06:30N 37°58' W 123°18'3 6.9
2017-Oct-17 06:00N 37°59' W 123°22'2 3.5
2017-Oct-17 05:30N 38°00' W 123°23'2 3.6
2017-Oct-17 05:00N 38°02' W 123°25'2 3.5
2017-Oct-17 04:30N 38°03' W 123°27'2 3.3
2017-Oct-17 04:00N 38°03' W 123°29'2 3.3
2017-Oct-17 03:30N 38°04' W 123°31'2 4.1
2017-Oct-17 03:00N 38°05' W 123°33'2 4.4
2017-Oct-17 02:30N 38°06' W 123°36'2 4.3
2017-Oct-17 02:00N 38°07' W 123°38'2 4.1
2017-Oct-17 01:30N 38°08' W 123°40'2 4.3
2017-Oct-17 01:00N 38°09' W 123°43'2 3.8
2017-Oct-17 00:26N 38°10' W 123°45'2 3.6
2017-Oct-17 00:00N 38°11' W 123°47'2 3.1
2017-Oct-16 23:30N 38°12' W 123°48'2 4.0
2017-Oct-16 23:00N 38°13' W 123°50'2 3.8
2017-Oct-16 22:30N 38°15' W 123°52'2 3.0
2017-Oct-16 21:59N 38°16' W 123°53'1 2.7
2017-Oct-16 21:30N 38°17' W 123°55'2 2.7
2017-Oct-16 20:48N 38°18' W 123°57'1 3.3
2017-Oct-16 20:25N 38°18' W 123°58'2 3.1
2017-Oct-16 19:53N 38°19' W 123°60'1 2.9
2017-Oct-16 19:30N 38°20' W 124°01'3 5.7
2017-Oct-16 18:59N 38°19' W 123°57'3 5.7
2017-Oct-16 18:30N 38°19' W 123°54'3 5.8
2017-Oct-16 18:00N 38°18' W 123°50'3 6.1
2017-Oct-16 17:30N 38°18' W 123°46'3 5.8
2017-Oct-16 16:59N 38°18' W 123°42'2 3.9
2017-Oct-16 16:30N 38°16' W 123°44'3 5.5
2017-Oct-16 16:00N 38°15' W 123°47'3 5.1
2017-Oct-16 15:27N 38°13' W 123°50'5 5.4
2017-Oct-16 14:31N 38°10' W 123°55'3 5.1
2017-Oct-16 13:59N 38°09' W 123°58'3 4.5
2017-Oct-16 13:26N 38°07' W 123°60'5 4.5
2017-Oct-16 12:18N 38°02' W 124°03'1 4.3
2017-Oct-16 11:58N 38°01' W 124°04'2 4.5
2017-Oct-16 11:27N 37°59' W 124°05'2 4.3
2017-Oct-16 11:00N 37°57' W 124°06'2 4.3
2017-Oct-16 10:30N 37°55' W 124°08'2 4.1
2017-Oct-16 09:59N 37°53' W 124°09'2 4.2
2017-Oct-16 09:30N 37°52' W 124°10'93 2.0
2017-Oct-14 11:38N 37°01' W 122°32'5 4.8
2017-Oct-14 10:39N 37°03' W 122°37'1 4.7
2017-Oct-14 10:31N 37°04' W 122°38'63 4.7
2017-Oct-13 21:09N 37°47' W 123°36'3 7.4
2017-Oct-13 20:48N 37°50' W 123°35'2 7.1
2017-Oct-13 20:29N 37°52' W 123°34'4 7.5
2017-Oct-13 20:00N 37°55' W 123°33'4 7.1
2017-Oct-13 19:30N 37°58' W 123°31'3 5.7
2017-Oct-13 18:59N 37°59' W 123°27'3 5.5
2017-Oct-13 18:29N 37°59' W 123°24'3 5.9
2017-Oct-13 17:57N 37°59' W 123°20'3 6.5
2017-Oct-13 17:28N 37°59' W 123°16'3 4.4
2017-Oct-13 16:53N 37°59' W 123°13'3 6.8
2017-Oct-13 16:30N 37°59' W 123°09'3 6.2
2017-Oct-13 16:00N 37°59' W 123°05'3 5.2
2017-Oct-13 15:30N 37°58' W 123°02'3 5.7
2017-Oct-13 15:00N 37°58' W 122°58'3 6.0
2017-Oct-13 14:30N 38°00' W 122°55'1 0.1
2017-Oct-13 01:33N 38°01' W 122°54'0 5.1
2017-Oct-13 01:29N 38°01' W 122°54'3 5.6
2017-Oct-13 00:53N 37°58' W 122°51'3 6.9
2017-Oct-13 00:30N 37°55' W 122°50'12 5.7
2017-Oct-12 22:17N 37°47' W 122°39'2 6.6
2017-Oct-12 21:57N 37°47' W 122°36'3 7.4
2017-Oct-12 21:30N 37°48' W 122°32'3 6.8
2017-Oct-12 21:00N 37°50' W 122°28'3 6.2
2017-Oct-12 20:30N 37°49' W 122°24'3 6.8
2017-Oct-12 20:00N 37°48' W 122°20'1 2.8
2017-Oct-12 19:30N 37°48' W 122°19'1 2.9
2017-Oct-12 19:00N 37°46' W 122°20'2 3.9
2017-Oct-12 18:30N 37°46' W 122°17'0 0.2
2017-Oct-12 17:59N 37°46' W 122°17'0 0.0
2017-Oct-12 17:29N 37°46' W 122°17'0 0.0
2017-Oct-12 16:59N 37°46' W 122°17'0 0.0
2017-Oct-12 16:29N 37°46' W 122°17'0 0.0
2017-Oct-12 15:59N 37°46' W 122°17'0 0.0
2017-Oct-12 15:29N 37°46' W 122°17'0 0.0
2017-Oct-12 14:59N 37°46' W 122°17'0 0.0
2017-Oct-12 14:29N 37°46' W 122°17'0 0.0
2017-Oct-12 13:59N 37°46' W 122°17'0 0.0
2017-Oct-12 13:29N 37°46' W 122°17'0 0.0
2017-Oct-12 12:59N 37°46' W 122°17'0 0.0
2017-Oct-12 12:29N 37°46' W 122°17'0 0.0
2017-Oct-12 11:59N 37°46' W 122°17'0 0.0
2017-Oct-12 11:29N 37°46' W 122°17'0 0.0
2017-Oct-12 10:59N 37°46' W 122°17'0 0.0
2017-Oct-12 10:29N 37°46' W 122°17'0 0.0
2017-Oct-12 09:59N 37°46' W 122°17'0 0.0
2017-Oct-12 09:29N 37°46' W 122°17'0 0.0
2017-Oct-12 08:59N 37°46' W 122°17'0 0.0
2017-Oct-12 08:29N 37°46' W 122°17'0 0.0
2017-Oct-12 07:59N 37°46' W 122°17'0 0.0
2017-Oct-12 07:29N 37°46' W 122°17'0 0.0
2017-Oct-12 06:59N 37°46' W 122°17'0 0.0
2017-Oct-12 06:29N 37°46' W 122°17'0 0.0
2017-Oct-12 05:59N 37°46' W 122°17'0 0.0
2017-Oct-12 05:29N 37°46' W 122°17'0 0.0
2017-Oct-12 04:59N 37°46' W 122°17'0 0.0
2017-Oct-12 04:29N 37°46' W 122°17'0 0.0
2017-Oct-12 03:59N 37°46' W 122°17'0 0.0
2017-Oct-12 03:29N 37°46' W 122°17'0 0.0
2017-Oct-12 02:59N 37°46' W 122°17'0 0.0
2017-Oct-12 02:29N 37°46' W 122°17'0 0.0
2017-Oct-12 01:59N 37°46' W 122°17'0 0.0
2017-Oct-12 01:29N 37°46' W 122°17'0 0.0
2017-Oct-12 00:59N 37°46' W 122°17'0 0.0
2017-Oct-12 00:29N 37°46' W 122°17'0 0.0
2017-Oct-11 23:59N 37°46' W 122°17'0 0.0
2017-Oct-11 23:29N 37°46' W 122°17'0 0.0
2017-Oct-11 22:59N 37°46' W 122°17'0 0.0
2017-Oct-11 22:29N 37°46' W 122°17'0 0.0
2017-Oct-11 21:59N 37°46' W 122°17'0 0.0
2017-Oct-11 21:29N 37°46' W 122°17'0 0.0
2017-Oct-11 20:59N 37°46' W 122°17'0 0.0
2017-Oct-11 20:29N 37°46' W 122°17'0 0.0
2017-Oct-11 19:59N 37°46' W 122°17'0 0.0
2017-Oct-11 19:29N 37°46' W 122°17'0 0.0
2017-Oct-11 18:59N 37°46' W 122°17'0 0.0
2017-Oct-11 18:29N 37°46' W 122°17'0 0.0
2017-Oct-11 17:59N 37°46' W 122°17'0 0.0
2017-Oct-11 17:29N 37°46' W 122°17'0 0.0
2017-Oct-11 16:59N 37°46' W 122°17'0 0.0
2017-Oct-11 00:00N 37°46' W 122°17'0 0.0
2017-Oct-10 23:30N 37°46' W 122°17'0 0.0
2017-Oct-10 23:00N 37°46' W 122°17'0 0.0
2017-Oct-10 22:30N 37°46' W 122°17'0 0.0
2017-Oct-10 22:00N 37°46' W 122°17'0 0.0
2017-Oct-10 21:30N 37°46' W 122°17'0 0.0
2017-Oct-10 21:00N 37°46' W 122°17'0 0.0
2017-Oct-10 20:30N 37°46' W 122°17'0 0.0
2017-Oct-10 20:00N 37°46' W 122°17'0 0.0
2017-Oct-10 19:30N 37°46' W 122°17'0 0.0
2017-Oct-09 00:05N 37°46' W 122°17'0 0.0
2017-Oct-09 00:01N 37°46' W 122°17'2 3.6
2017-Oct-08 23:30N 37°46' W 122°20'3 5.6
2017-Oct-08 23:00N 37°48' W 122°23'2 3.6
2017-Oct-08 22:31N 37°49' W 122°24'0 1.0
2017-Oct-08 22:00N 37°49' W 122°24'2 3.6
2017-Oct-08 21:31N 37°50' W 122°26'1 2.1
2017-Oct-08 21:01N 37°51' W 122°26'1 1.2
2017-Oct-08 20:30N 37°50' W 122°26'1 2.9
2017-Oct-08 20:00N 37°51' W 122°27'2 4.6
2017-Oct-08 19:30N 37°52' W 122°24'3 6.9
2017-Oct-08 19:00N 37°49' W 122°24'2 4.3
2017-Oct-08 18:30N 37°47' W 122°23'2 4.5
2017-Oct-08 18:00N 37°46' W 122°20'3 5.6
2017-Oct-08 17:30N 37°46' W 122°17'0 0.6
2017-Oct-08 16:59N 37°46' W 122°17'  

Dump ship's entire track history